createdAt,value
2022-08-31T00:00:12.347Z,42.65
2022-08-31T00:02:58.031Z,40.03
2022-08-31T00:05:25.080Z,66.00
2022-08-31T00:07:52.552Z,47.55
2022-08-31T00:10:32.253Z,38.42
2022-08-31T00:13:01.424Z,49.25
2022-08-31T00:15:30.195Z,61.63
2022-08-31T00:17:57.419Z,43.20
2022-08-31T00:20:33.620Z,57.22
2022-08-31T00:23:07.933Z,65.20
2022-08-31T00:25:36.589Z,36.88
2022-08-31T00:28:05.394Z,60.47
2022-08-31T00:30:32.905Z,51.42
2022-08-31T00:32:59.859Z,58.38
2022-08-31T00:35:32.929Z,38.63
2022-08-31T00:38:00.433Z,47.40
2022-08-31T00:40:27.712Z,68.35
2022-08-31T00:42:55.569Z,72.20
2022-08-31T00:45:23.507Z,60.88
2022-08-31T00:47:51.345Z,63.67
2022-08-31T00:50:19.664Z,48.85
2022-08-31T00:52:54.872Z,82.15
2022-08-31T00:55:35.683Z,64.10
2022-08-31T00:58:10.896Z,79.25
2022-08-31T01:00:38.647Z,88.78
2022-08-31T01:03:07.326Z,63.72
2022-08-31T01:05:35.190Z,49.10
2022-08-31T01:08:03.848Z,89.15
2022-08-31T01:10:35.503Z,51.88
2022-08-31T01:15:31.881Z,81.90
2022-08-31T01:18:03.057Z,76.85
2022-08-31T01:20:37.909Z,96.00
2022-08-31T01:23:42.878Z,76.00
2022-08-31T01:26:15.716Z,65.03
2022-08-31T01:28:42.642Z,60.70
2022-08-31T01:31:22.815Z,98.80
2022-08-31T01:33:50.748Z,108.70
2022-08-31T01:36:18.429Z,123.10
2022-08-31T01:38:45.731Z,409.30
2022-08-31T01:41:13.075Z,481.98
2022-08-31T01:43:41.393Z,178.13
2022-08-31T01:46:13.120Z,325.48
2022-08-31T01:48:43.887Z,167.98
2022-08-31T01:51:13.497Z,325.23
2022-08-31T01:53:45.666Z,124.13
2022-08-31T01:56:26.739Z,410.00
2022-08-31T01:58:53.749Z,327.25
2022-08-31T02:01:33.855Z,333.38
2022-08-31T02:04:04.075Z,281.73
2022-08-31T02:06:31.831Z,251.27
2022-08-31T02:08:58.871Z,210.50
2022-08-31T02:11:25.642Z,170.93
2022-08-31T02:13:52.379Z,239.05
2022-08-31T02:16:19.120Z,234.75
2022-08-31T02:18:45.898Z,185.77
2022-08-31T02:21:13.516Z,206.30
2022-08-31T02:23:41.833Z,182.63
2022-08-31T02:26:09.716Z,191.15
2022-08-31T02:28:37.584Z,155.95
2022-08-31T02:31:04.696Z,170.55
2022-08-31T02:33:31.571Z,166.88
2022-08-31T02:35:59.064Z,170.23
2022-08-31T02:38:27.309Z,189.63
2022-08-31T02:40:54.274Z,190.95
2022-08-31T02:43:24.659Z,168.63
2022-08-31T02:45:53.581Z,172.00
2022-08-31T02:48:21.631Z,155.52
2022-08-31T02:50:51.338Z,166.40
2022-08-31T02:53:21.565Z,169.13
2022-08-31T02:55:49.567Z,155.82
2022-08-31T02:58:20.692Z,172.00
2022-08-31T03:00:50.250Z,155.73
2022-08-31T03:03:17.926Z,157.57
2022-08-31T03:05:44.847Z,165.68
2022-08-31T03:08:11.688Z,186.60
2022-08-31T03:10:38.436Z,172.60
2022-08-31T03:13:05.189Z,157.57
2022-08-31T03:15:32.354Z,193.38
2022-08-31T03:17:59.234Z,194.55
2022-08-31T03:20:27.346Z,198.60
2022-08-31T03:22:54.670Z,180.30
2022-08-31T03:25:22.305Z,191.88
2022-08-31T03:27:49.277Z,172.95
2022-08-31T03:30:20.194Z,157.93
2022-08-31T03:32:48.269Z,197.30
2022-08-31T03:35:17.941Z,168.40
2022-08-31T03:37:45.519Z,172.93
2022-08-31T03:40:13.180Z,180.63
2022-08-31T03:42:40.477Z,182.60
2022-08-31T03:45:08.488Z,180.52
2022-08-31T03:47:36.950Z,167.43
2022-08-31T03:50:12.045Z,193.57
2022-08-31T03:52:39.401Z,156.77
2022-08-31T03:55:07.786Z,181.95
2022-08-31T03:57:34.845Z,163.93
2022-08-31T04:00:01.954Z,193.93
2022-08-31T04:02:28.714Z,207.70
2022-08-31T04:04:55.675Z,180.32
2022-08-31T04:07:22.655Z,182.43
2022-08-31T04:09:50.808Z,177.73
2022-08-31T04:12:18.887Z,162.55
2022-08-31T04:14:46.102Z,190.95
2022-08-31T04:17:13.843Z,158.00
2022-08-31T04:19:41.309Z,181.07
2022-08-31T04:22:08.884Z,169.30
2022-08-31T04:24:35.699Z,164.93
2022-08-31T04:27:02.610Z,175.68
2022-08-31T04:29:29.608Z,172.70
2022-08-31T04:31:56.409Z,184.98
2022-08-31T04:34:23.406Z,166.73
2022-08-31T04:36:50.315Z,181.20
2022-08-31T04:39:17.406Z,180.88
2022-08-31T04:41:44.988Z,177.38
2022-08-31T04:44:14.377Z,174.88
2022-08-31T04:46:43.221Z,205.63
2022-08-31T04:49:10.970Z,186.25
2022-08-31T04:51:39.222Z,193.40
2022-08-31T04:54:11.256Z,179.88
2022-08-31T04:56:42.539Z,174.32
2022-08-31T04:59:13.370Z,176.68
2022-08-31T05:01:45.248Z,193.70
2022-08-31T05:04:15.132Z,176.95
2022-08-31T05:06:44.468Z,177.70
2022-08-31T05:09:17.056Z,215.70
2022-08-31T05:11:44.601Z,171.90
2022-08-31T05:14:11.650Z,186.02
2022-08-31T05:16:40.957Z,189.85
2022-08-31T05:19:08.475Z,193.65
2022-08-31T05:21:39.354Z,195.70
2022-08-31T05:24:22.453Z,203.20
2022-08-31T05:26:53.139Z,183.40
2022-08-31T05:29:24.633Z,207.68
2022-08-31T05:31:52.766Z,188.25
2022-08-31T05:34:21.561Z,208.65
2022-08-31T05:59:12.377Z,166.90
2022-08-31T06:01:40.975Z,156.43
2022-08-31T06:04:09.064Z,226.40
2022-08-31T06:06:37.010Z,247.07
2022-08-31T06:09:06.424Z,229.55
2022-08-31T06:11:34.727Z,195.98
2022-08-31T06:14:03.673Z,106.20
2022-08-31T06:16:32.143Z,51.42
2022-08-31T06:18:59.578Z,115.43
2022-08-31T06:21:35.958Z,94.25
2022-08-31T06:24:05.320Z,38.88
2022-08-31T06:26:34.577Z,65.05
2022-08-31T06:29:05.573Z,25.95
2022-08-31T06:31:42.543Z,22.38
2022-08-31T06:34:09.403Z,30.38
2022-08-31T06:36:36.144Z,13.95
2022-08-31T06:39:04.669Z,19.55
2022-08-31T06:41:38.857Z,14.63
2022-08-31T06:44:09.997Z,14.23
2022-08-31T06:46:38.805Z,18.48
2022-08-31T06:49:08.677Z,19.52
2022-08-31T06:51:37.810Z,15.07
2022-08-31T06:54:28.547Z,23.92
2022-08-31T06:57:00.032Z,12.77
2022-08-31T06:59:29.146Z,14.88
2022-08-31T07:01:57.778Z,15.02
2022-08-31T07:04:24.827Z,15.77
2022-08-31T07:06:51.668Z,17.13
2022-08-31T07:09:18.790Z,18.40
2022-08-31T07:11:50.072Z,18.52
2022-08-31T07:19:22.223Z,20.25
2022-08-31T07:21:54.414Z,16.10
2022-08-31T07:24:27.667Z,23.27
2022-08-31T07:26:58.666Z,24.48
2022-08-31T07:29:30.199Z,23.05
2022-08-31T07:31:59.158Z,21.02
2022-08-31T07:34:29.453Z,19.70
2022-08-31T07:37:18.211Z,22.25
2022-08-31T07:40:07.918Z,28.52
2022-08-31T07:42:44.801Z,23.63
2022-08-31T07:45:22.636Z,28.40
2022-08-31T07:47:52.349Z,22.88
2022-08-31T07:50:20.816Z,26.13
2022-08-31T07:52:53.978Z,52.45
2022-08-31T07:55:24.001Z,24.20
2022-08-31T07:57:53.747Z,31.63
2022-08-31T08:00:25.077Z,22.42
2022-08-31T08:05:26.809Z,41.10
2022-08-31T08:08:06.017Z,26.70
2022-08-31T08:10:35.045Z,43.35
2022-08-31T08:13:04.959Z,25.02
2022-08-31T08:15:35.392Z,20.23
2022-08-31T08:18:03.248Z,22.50
2022-08-31T08:20:38.011Z,21.33
2022-08-31T08:23:14.938Z,18.35
2022-08-31T08:25:46.424Z,42.67
2022-08-31T08:31:06.322Z,16.38
2022-08-31T08:33:35.155Z,40.03
2022-08-31T08:36:07.611Z,46.70
2022-08-31T08:38:39.602Z,24.88
2022-08-31T08:41:14.386Z,25.23
2022-08-31T08:43:48.008Z,27.48
2022-08-31T08:46:48.259Z,16.35
2022-08-31T08:49:23.301Z,23.75
2022-08-31T08:51:57.474Z,14.52
2022-08-31T08:54:37.850Z,14.55
2022-08-31T08:57:13.964Z,15.50
2022-08-31T08:59:46.822Z,15.80
2022-08-31T09:03:00.974Z,15.25
2022-08-31T09:06:09.436Z,30.20
2022-08-31T09:09:41.720Z,21.10
2022-08-31T09:12:36.024Z,39.42
2022-08-31T09:15:41.136Z,17.33
2022-08-31T09:18:48.700Z,15.45
2022-08-31T09:21:25.444Z,14.93
2022-08-31T09:24:03.669Z,13.82
2022-08-31T09:26:35.530Z,19.60
2022-08-31T09:29:03.742Z,23.30
2022-08-31T09:31:41.984Z,13.32
2022-08-31T09:34:31.121Z,44.75
2022-08-31T09:37:24.128Z,16.27
2022-08-31T09:39:53.585Z,13.65
2022-08-31T09:42:32.030Z,15.60
2022-08-31T09:45:12.776Z,16.00
2022-08-31T09:47:52.263Z,18.02
2022-08-31T09:50:44.792Z,11.95
2022-08-31T09:53:44.085Z,15.05
2022-08-31T09:56:22.458Z,17.02
2022-08-31T09:59:02.577Z,18.10
2022-08-31T10:01:45.274Z,14.07
2022-08-31T10:04:27.053Z,15.35
2022-08-31T10:07:42.065Z,16.23
2022-08-31T10:10:31.804Z,14.57
2022-08-31T10:13:13.578Z,15.73
2022-08-31T10:15:53.107Z,23.30
2022-08-31T10:18:47.098Z,13.75
2022-08-31T10:21:24.963Z,15.68
2022-08-31T10:24:28.757Z,14.10
2022-08-31T10:27:18.750Z,12.82
2022-08-31T10:29:52.483Z,14.23
2022-08-31T10:32:43.615Z,14.23
2022-08-31T10:38:08.287Z,13.60
2022-08-31T10:40:47.410Z,15.20
2022-08-31T10:43:21.330Z,17.58
2022-08-31T10:45:52.488Z,11.82
2022-08-31T10:48:24.533Z,13.38
2022-08-31T10:51:05.509Z,13.30
2022-08-31T10:56:41.348Z,13.27
2022-08-31T10:59:40.218Z,12.48
2022-08-31T11:02:37.373Z,12.55
2022-08-31T11:05:41.574Z,12.90
2022-08-31T11:08:16.978Z,14.75
2022-08-31T11:10:54.745Z,13.48
2022-08-31T11:13:39.367Z,13.90
2022-08-31T11:16:21.152Z,13.45
2022-08-31T11:19:25.918Z,13.23
2022-08-31T11:21:55.425Z,13.02
2022-08-31T11:25:03.392Z,14.88
2022-08-31T11:27:44.968Z,12.68
2022-08-31T11:30:24.397Z,13.50
2022-08-31T11:33:07.713Z,13.63
2022-08-31T11:35:49.697Z,13.73
2022-08-31T11:39:15.070Z,12.35
2022-08-31T11:41:49.557Z,22.00
2022-08-31T11:44:39.473Z,14.18
2022-08-31T11:47:09.662Z,15.68
2022-08-31T11:49:40.714Z,13.55
2022-08-31T11:52:29.434Z,12.73
2022-08-31T11:55:04.311Z,16.00
2022-08-31T11:57:37.060Z,14.15
2022-08-31T12:00:19.821Z,16.25
2022-08-31T12:03:04.421Z,13.40
2022-08-31T12:05:50.866Z,13.20
2022-08-31T12:08:18.571Z,13.70
2022-08-31T12:10:59.073Z,13.65
2022-08-31T12:13:49.463Z,14.23
2022-08-31T12:16:46.878Z,13.05
2022-08-31T12:19:59.132Z,14.60
2022-08-31T12:23:30.738Z,14.07
2022-08-31T12:26:32.456Z,12.52
2022-08-31T12:29:24.587Z,13.43
2022-08-31T12:32:29.790Z,14.20
2022-08-31T12:35:04.180Z,13.93
2022-08-31T12:37:36.039Z,13.10
2022-08-31T12:40:20.136Z,14.18
2022-08-31T12:43:18.054Z,13.65
2022-08-31T12:46:15.413Z,12.52
2022-08-31T12:49:25.039Z,15.15
2022-08-31T12:52:00.698Z,13.43
2022-08-31T12:54:56.527Z,14.15
2022-08-31T12:57:48.549Z,13.02
2022-08-31T13:00:28.120Z,12.80
2022-08-31T13:03:01.543Z,19.13
2022-08-31T13:05:36.847Z,13.55
2022-08-31T13:08:23.785Z,14.00
2022-08-31T13:10:51.139Z,22.70
2022-08-31T13:13:29.290Z,13.95
2022-08-31T13:16:04.600Z,15.55
2022-08-31T13:18:31.723Z,15.40
2022-08-31T13:21:05.402Z,13.23
2022-08-31T13:23:40.766Z,17.92
2022-08-31T13:26:20.565Z,13.68
2022-08-31T13:28:58.969Z,12.70
2022-08-31T13:31:35.648Z,25.77
2022-08-31T13:34:07.233Z,15.15
2022-08-31T13:36:47.694Z,15.43
2022-08-31T13:39:38.999Z,19.55
2022-08-31T13:42:22.131Z,14.00
2022-08-31T13:45:01.624Z,13.82
2022-08-31T13:47:38.015Z,13.80
2022-08-31T13:50:21.657Z,14.60
2022-08-31T13:53:44.157Z,16.85
2022-08-31T13:55:50.213Z,18.20
2022-08-31T13:58:29.309Z,17.40
2022-08-31T14:01:33.945Z,15.73
2022-08-31T14:04:00.809Z,15.85
2022-08-31T14:06:35.450Z,14.27
2022-08-31T14:09:17.146Z,16.23
2022-08-31T14:11:54.906Z,15.95
2022-08-31T14:14:39.669Z,13.85
2022-08-31T14:17:16.148Z,13.82
2022-08-31T14:19:45.047Z,14.57
2022-08-31T14:22:32.934Z,13.93
2022-08-31T14:25:00.818Z,13.63
2022-08-31T14:27:29.530Z,13.48
2022-08-31T14:29:58.081Z,27.33
2022-08-31T14:32:25.637Z,13.80
2022-08-31T14:34:55.140Z,13.85
2022-08-31T14:37:28.621Z,15.25
2022-08-31T14:40:07.751Z,15.07
2022-08-31T14:42:37.894Z,14.45
2022-08-31T14:45:18.387Z,14.88
2022-08-31T14:47:48.341Z,18.63
2022-08-31T14:50:21.359Z,14.52
2022-08-31T14:52:52.867Z,17.63
2022-08-31T14:55:21.839Z,14.55
2022-08-31T14:57:55.456Z,13.50
2022-08-31T15:00:23.223Z,13.50
2022-08-31T15:02:53.297Z,26.85
2022-08-31T15:05:23.782Z,15.50
2022-08-31T15:07:53.823Z,14.68
2022-08-31T15:10:25.223Z,14.70
2022-08-31T15:12:53.389Z,14.13
2022-08-31T15:15:20.647Z,18.80
2022-08-31T15:17:51.288Z,15.23
2022-08-31T15:20:20.846Z,15.20
2022-08-31T15:22:48.569Z,14.80
2022-08-31T15:25:16.942Z,15.43
2022-08-31T15:27:44.282Z,15.13
2022-08-31T15:30:15.781Z,15.15
2022-08-31T15:32:45.089Z,14.05
2022-08-31T15:35:17.839Z,14.27
2022-08-31T15:37:52.894Z,13.52
2022-08-31T15:40:21.535Z,20.20
2022-08-31T15:42:50.124Z,13.15
2022-08-31T15:45:17.080Z,14.15
2022-08-31T15:48:02.782Z,13.52
2022-08-31T15:50:31.795Z,13.85
2022-08-31T15:53:08.951Z,14.75
2022-08-31T15:55:40.938Z,13.95
2022-08-31T15:58:09.815Z,20.25
2022-08-31T16:00:37.727Z,14.73
2022-08-31T16:03:06.014Z,15.07
2022-08-31T16:05:35.838Z,14.85
2022-08-31T16:08:03.263Z,16.63
2022-08-31T16:10:31.077Z,14.38
2022-08-31T16:12:58.199Z,16.33
2022-08-31T16:15:25.846Z,15.70
2022-08-31T16:17:57.476Z,15.23
2022-08-31T16:20:24.622Z,15.18
2022-08-31T16:22:51.540Z,14.70
2022-08-31T16:25:20.456Z,16.00
2022-08-31T16:27:47.839Z,15.00
2022-08-31T16:30:16.021Z,15.02
2022-08-31T16:32:42.980Z,14.57
2022-08-31T16:35:10.737Z,14.60
2022-08-31T16:37:37.887Z,14.73
2022-08-31T16:40:05.516Z,34.10
2022-08-31T16:42:32.411Z,15.68
2022-08-31T16:45:02.309Z,16.27
2022-08-31T16:47:29.950Z,16.03
2022-08-31T16:49:58.898Z,16.50
2022-08-31T16:52:27.209Z,16.58
2022-08-31T16:54:57.095Z,15.90
2022-08-31T16:57:28.675Z,17.30
2022-08-31T16:59:57.307Z,15.82
2022-08-31T17:02:25.863Z,15.82
2022-08-31T17:04:54.159Z,17.52
2022-08-31T17:07:24.421Z,15.82
2022-08-31T17:09:56.185Z,16.30
2022-08-31T17:12:27.321Z,15.88
2022-08-31T17:17:25.797Z,16.40
2022-08-31T17:19:55.673Z,17.98
2022-08-31T17:22:31.745Z,15.80
2022-08-31T17:25:02.951Z,15.82
2022-08-31T17:27:33.020Z,15.77
2022-08-31T17:30:05.702Z,15.85
2022-08-31T17:32:33.737Z,15.80
2022-08-31T17:35:02.537Z,16.35
2022-08-31T17:37:36.097Z,17.98
2022-08-31T17:40:08.143Z,17.65
2022-08-31T17:42:36.063Z,15.82
2022-08-31T17:45:05.761Z,15.82
2022-08-31T17:47:33.233Z,15.80
2022-08-31T17:50:00.549Z,17.23
2022-08-31T17:52:28.275Z,17.02
2022-08-31T17:54:55.277Z,16.80
2022-08-31T17:57:25.107Z,16.30
2022-08-31T17:59:54.867Z,17.17
2022-08-31T18:02:32.442Z,16.80
2022-08-31T18:05:00.993Z,66.10
2022-08-31T18:07:28.239Z,30.23
2022-08-31T18:09:55.103Z,20.48
2022-08-31T18:12:22.771Z,18.17
2022-08-31T18:14:50.033Z,17.58
2022-08-31T18:17:17.209Z,17.92
2022-08-31T18:19:45.378Z,17.50
2022-08-31T18:22:14.374Z,17.67
2022-08-31T18:24:43.034Z,17.55
2022-08-31T18:27:15.065Z,16.73
2022-08-31T18:29:44.117Z,16.98
2022-08-31T18:32:11.477Z,17.60
2022-08-31T18:34:44.115Z,16.38
2022-08-31T18:37:12.810Z,19.70
2022-08-31T18:40:00.543Z,19.50
2022-08-31T18:42:46.978Z,16.70
2022-08-31T18:45:16.803Z,16.60
2022-08-31T18:48:01.598Z,18.70
2022-08-31T18:50:36.470Z,17.85
2022-08-31T18:53:08.271Z,23.83
2022-08-31T18:55:42.453Z,22.73
2022-08-31T18:58:09.998Z,18.95
2022-08-31T19:00:37.105Z,17.67
2022-08-31T19:03:04.701Z,19.17
2022-08-31T19:05:32.831Z,21.20
2022-08-31T19:08:00.369Z,19.92
2022-08-31T19:10:28.100Z,25.27
2022-08-31T19:12:55.734Z,18.85
2022-08-31T19:15:25.440Z,18.38
2022-08-31T19:17:59.500Z,17.80
2022-08-31T19:20:29.299Z,18.00
2022-08-31T19:22:56.676Z,19.00
2022-08-31T19:25:24.527Z,33.47
2022-08-31T19:27:52.538Z,21.90
2022-08-31T19:30:25.829Z,18.17
2022-08-31T19:32:54.444Z,16.95
2022-08-31T19:35:21.327Z,18.38
2022-08-31T19:37:51.734Z,18.98
2022-08-31T19:40:19.350Z,17.40
2022-08-31T19:45:44.870Z,18.58
2022-08-31T19:48:13.053Z,18.40
2022-08-31T19:50:42.217Z,22.50
2022-08-31T19:53:13.477Z,18.13
2022-08-31T19:58:26.190Z,19.10
2022-08-31T20:01:00.744Z,28.83
2022-08-31T20:03:30.519Z,32.00
2022-08-31T20:05:59.448Z,18.55
2022-08-31T20:08:26.303Z,17.23
2022-08-31T20:10:53.136Z,27.65
2022-08-31T20:13:22.848Z,19.45
2022-08-31T20:15:50.955Z,25.48
2022-08-31T20:18:17.959Z,18.90
2022-08-31T20:20:48.192Z,21.10
2022-08-31T20:23:18.762Z,18.80
2022-08-31T20:25:49.295Z,21.90
2022-08-31T20:28:17.749Z,33.03
2022-08-31T20:30:45.185Z,18.92
2022-08-31T20:33:12.274Z,26.92
2022-08-31T20:35:47.441Z,40.47
2022-08-31T20:38:16.682Z,17.13
2022-08-31T20:40:47.375Z,18.08
2022-08-31T20:43:14.998Z,17.93
2022-08-31T20:45:42.197Z,18.30
2022-08-31T20:48:27.997Z,19.45
2022-08-31T20:50:55.778Z,22.13
2022-08-31T20:53:42.498Z,20.23
2022-08-31T20:56:16.985Z,46.03
2022-08-31T20:58:45.784Z,22.75
2022-08-31T21:01:13.782Z,23.75
2022-08-31T21:03:40.818Z,19.17
2022-08-31T21:06:11.499Z,18.67
2022-08-31T21:08:42.390Z,20.63
2022-08-31T21:11:12.320Z,19.80
2022-08-31T21:13:39.153Z,18.88
2022-08-31T21:16:06.135Z,47.22
2022-08-31T21:18:34.718Z,43.95
2022-08-31T21:21:17.463Z,82.15
2022-08-31T21:23:45.862Z,19.33
2022-08-31T21:26:24.326Z,20.50
2022-08-31T21:28:52.796Z,55.15
2022-08-31T21:31:29.285Z,64.32
2022-08-31T21:34:02.911Z,38.67
2022-08-31T21:36:33.088Z,40.20
2022-08-31T21:39:00.741Z,45.17
2022-08-31T21:41:29.237Z,72.50
2022-08-31T21:43:58.638Z,109.85
2022-08-31T21:46:28.614Z,91.35
2022-08-31T21:48:58.592Z,95.57
2022-08-31T21:51:33.110Z,94.85
2022-08-31T21:54:06.866Z,95.78
2022-08-31T21:56:44.383Z,72.63
2022-08-31T21:59:14.541Z,116.80
2022-08-31T22:01:42.374Z,93.43
2022-08-31T22:04:10.150Z,98.40
2022-08-31T22:06:38.527Z,101.60
2022-08-31T22:09:09.890Z,110.75
2022-08-31T22:11:41.501Z,86.05
2022-08-31T22:16:40.708Z,140.30
2022-08-31T22:19:13.164Z,124.78
2022-08-31T22:21:48.357Z,138.15
2022-08-31T22:24:27.487Z,203.02
2022-08-31T22:26:57.700Z,167.77
2022-08-31T22:29:29.591Z,173.73
2022-08-31T22:32:03.066Z,179.95
2022-08-31T22:34:29.910Z,179.20
2022-08-31T22:36:57.470Z,203.68
2022-08-31T22:39:29.189Z,137.85
2022-08-31T22:44:29.326Z,227.18
2022-08-31T22:46:56.973Z,204.70
2022-08-31T22:49:25.739Z,238.60
2022-08-31T22:51:54.313Z,197.05
2022-08-31T22:54:22.830Z,196.90
2022-08-31T22:56:51.175Z,199.50
2022-08-31T22:59:27.076Z,187.23
2022-08-31T23:02:03.345Z,172.75
2022-08-31T23:04:33.446Z,192.00
2022-08-31T23:07:01.598Z,181.07
2022-08-31T23:09:30.808Z,198.02
2022-08-31T23:12:00.717Z,213.38
2022-08-31T23:14:29.243Z,198.75
2022-08-31T23:17:00.847Z,180.35
2022-08-31T23:19:54.225Z,198.20
2022-08-31T23:22:21.998Z,227.68
2022-08-31T23:24:51.710Z,178.77
2022-08-31T23:27:21.762Z,162.55
2022-08-31T23:29:56.455Z,194.90
2022-08-31T23:32:27.656Z,166.55
2022-08-31T23:34:58.167Z,200.27
2022-08-31T23:37:27.266Z,154.77
2022-08-31T23:39:55.898Z,144.82
2022-08-31T23:42:26.184Z,166.32
2022-08-31T23:44:53.951Z,203.82
2022-08-31T23:47:28.935Z,172.32
2022-08-31T23:49:57.900Z,162.68
2022-08-31T23:52:28.349Z,153.68
2022-08-31T23:54:58.037Z,184.60
2022-08-31T23:57:32.087Z,135.98
